sensor_id;sensor_type;location;lat;lon;timestamp;pressure;altitude;pressure_sealevel;temperature;humidity
64115;BME280;62188;35.640;139.748;2023-01-29T00:00:34;101439.57;;;13.36;16.22
64115;BME280;62188;35.640;139.748;2023-01-29T00:03:00;101443.79;;;13.52;16.05
64115;BME280;62188;35.640;139.748;2023-01-29T00:05:25;101443.64;;;14.07;15.37
64115;BME280;62188;35.640;139.748;2023-01-29T00:07:51;101439.24;;;13.67;15.66
64115;BME280;62188;35.640;139.748;2023-01-29T00:10:17;101440.70;;;14.00;15.06
64115;BME280;62188;35.640;139.748;2023-01-29T00:12:42;101441.94;;;14.26;15.05
64115;BME280;62188;35.640;139.748;2023-01-29T00:15:08;101442.26;;;14.64;15.26
64115;BME280;62188;35.640;139.748;2023-01-29T00:17:34;101438.20;;;14.86;14.98
64115;BME280;62188;35.640;139.748;2023-01-29T00:19:59;101436.42;;;15.25;15.01
64115;BME280;62188;35.640;139.748;2023-01-29T00:22:24;101431.58;;;15.42;14.57
64115;BME280;62188;35.640;139.748;2023-01-29T00:24:50;101427.65;;;15.56;14.24
64115;BME280;62188;35.640;139.748;2023-01-29T00:27:16;101428.01;;;15.44;13.88
64115;BME280;62188;35.640;139.748;2023-01-29T00:29:41;101427.46;;;15.68;14.11
64115;BME280;62188;35.640;139.748;2023-01-29T00:32:07;101426.20;;;15.76;14.13
64115;BME280;62188;35.640;139.748;2023-01-29T00:34:33;101426.46;;;15.74;14.21
64115;BME280;62188;35.640;139.748;2023-01-29T00:36:59;101424.40;;;15.69;13.70
64115;BME280;62188;35.640;139.748;2023-01-29T00:39:24;101423.65;;;16.00;13.00
64115;BME280;62188;35.640;139.748;2023-01-29T00:41:50;101421.07;;;15.86;12.95
64115;BME280;62188;35.640;139.748;2023-01-29T00:44:15;101421.17;;;16.09;14.26
64115;BME280;62188;35.640;139.748;2023-01-29T00:46:41;101413.14;;;16.23;14.36
64115;BME280;62188;35.640;139.748;2023-01-29T00:49:12;101413.33;;;16.37;15.02
64115;BME280;62188;35.640;139.748;2023-01-29T00:51:33;101412.77;;;16.26;13.88
64115;BME280;62188;35.640;139.748;2023-01-29T00:53:58;101416.78;;;16.64;13.42
64115;BME280;62188;35.640;139.748;2023-01-29T00:56:24;101415.04;;;16.81;13.33
64115;BME280;62188;35.640;139.748;2023-01-29T00:58:52;101414.29;;;16.44;14.31
64115;BME280;62188;35.640;139.748;2023-01-29T01:01:14;101419.99;;;16.83;15.50
64115;BME280;62188;35.640;139.748;2023-01-29T01:03:40;101421.22;;;16.91;14.09
64115;BME280;62188;35.640;139.748;2023-01-29T01:06:08;101412.46;;;17.00;15.58
64115;BME280;62188;35.640;139.748;2023-01-29T01:08:31;101412.78;;;16.74;13.58
64115;BME280;62188;35.640;139.748;2023-01-29T01:11:02;101414.78;;;16.83;14.23
64115;BME280;62188;35.640;139.748;2023-01-29T01:13:22;101415.70;;;16.68;14.06
64115;BME280;62188;35.640;139.748;2023-01-29T01:15:48;101422.78;;;16.93;14.05
64115;BME280;62188;35.640;139.748;2023-01-29T01:18:13;101421.62;;;17.20;12.71
64115;BME280;62188;35.640;139.748;2023-01-29T01:20:39;101419.20;;;17.24;12.42
64115;BME280;62188;35.640;139.748;2023-01-29T01:23:05;101417.92;;;17.36;14.30
64115;BME280;62188;35.640;139.748;2023-01-29T01:25:31;101412.00;;;17.31;13.86
64115;BME280;62188;35.640;139.748;2023-01-29T01:27:57;101414.00;;;17.20;15.67
64115;BME280;62188;35.640;139.748;2023-01-29T01:30:22;101410.59;;;17.35;13.46
64115;BME280;62188;35.640;139.748;2023-01-29T01:32:47;101407.72;;;17.55;14.01
64115;BME280;62188;35.640;139.748;2023-01-29T01:35:13;101402.19;;;17.51;13.54
64115;BME280;62188;35.640;139.748;2023-01-29T01:37:39;101399.88;;;17.30;12.97
64115;BME280;62188;35.640;139.748;2023-01-29T01:40:05;101394.33;;;17.18;12.84
64115;BME280;62188;35.640;139.748;2023-01-29T01:42:29;101389.02;;;17.38;12.48
64115;BME280;62188;35.640;139.748;2023-01-29T01:44:58;101381.08;;;17.69;12.38
64115;BME280;62188;35.640;139.748;2023-01-29T01:47:26;101380.17;;;17.96;12.93
64115;BME280;62188;35.640;139.748;2023-01-29T01:49:46;101375.88;;;17.87;13.05
64115;BME280;62188;35.640;139.748;2023-01-29T01:52:13;101369.60;;;17.79;11.90
64115;BME280;62188;35.640;139.748;2023-01-29T01:54:39;101364.44;;;18.45;11.73
64115;BME280;62188;35.640;139.748;2023-01-29T01:57:05;101362.32;;;17.83;13.33
64115;BME280;62188;35.640;139.748;2023-01-29T01:59:29;101355.19;;;17.95;12.80
64115;BME280;62188;35.640;139.748;2023-01-29T02:01:54;101353.69;;;18.27;12.60
64115;BME280;62188;35.640;139.748;2023-01-29T02:04:22;101346.15;;;18.50;12.01
64115;BME280;62188;35.640;139.748;2023-01-29T02:06:45;101338.93;;;18.39;11.76
64115;BME280;62188;35.640;139.748;2023-01-29T02:09:15;101332.80;;;18.25;11.63
64115;BME280;62188;35.640;139.748;2023-01-29T02:11:37;101324.06;;;18.51;11.74
64115;BME280;62188;35.640;139.748;2023-01-29T02:14:02;101325.61;;;18.41;11.71
64115;BME280;62188;35.640;139.748;2023-01-29T02:16:27;101317.84;;;18.48;11.44
64115;BME280;62188;35.640;139.748;2023-01-29T02:18:53;101317.03;;;18.73;11.91
64115;BME280;62188;35.640;139.748;2023-01-29T02:26:15;101297.71;;;19.60;11.61
64115;BME280;62188;35.640;139.748;2023-01-29T02:28:40;101293.71;;;19.29;11.38
64115;BME280;62188;35.640;139.748;2023-01-29T02:31:07;101289.49;;;19.52;10.96
64115;BME280;62188;35.640;139.748;2023-01-29T02:33:33;101282.92;;;19.11;10.96
64115;BME280;62188;35.640;139.748;2023-01-29T02:35:56;101283.00;;;18.15;10.68
64115;BME280;62188;35.640;139.748;2023-01-29T02:38:22;101276.08;;;17.86;10.95
64115;BME280;62188;35.640;139.748;2023-01-29T02:40:47;101269.38;;;17.30;11.05
64115;BME280;62188;35.640;139.748;2023-01-29T02:43:17;101269.31;;;17.37;11.16
64115;BME280;62188;35.640;139.748;2023-01-29T02:45:42;101263.83;;;16.68;11.51
64115;BME280;62188;35.640;139.748;2023-01-29T02:48:01;101254.22;;;16.88;11.82
64115;BME280;62188;35.640;139.748;2023-01-29T02:50:32;101250.47;;;17.15;11.72
64115;BME280;62188;35.640;139.748;2023-01-29T02:52:57;101246.03;;;17.18;12.00
64115;BME280;62188;35.640;139.748;2023-01-29T02:55:22;101241.81;;;17.55;11.84
64115;BME280;62188;35.640;139.748;2023-01-29T02:57:45;101241.36;;;17.60;11.85
64115;BME280;62188;35.640;139.748;2023-01-29T03:00:13;101239.89;;;17.95;11.66
64115;BME280;62188;35.640;139.748;2023-01-29T03:02:40;101237.11;;;17.34;11.49
64115;BME280;62188;35.640;139.748;2023-01-29T03:05:02;101234.31;;;17.22;11.80
64115;BME280;62188;35.640;139.748;2023-01-29T03:07:30;101230.35;;;16.53;12.01
64115;BME280;62188;35.640;139.748;2023-01-29T03:09:52;101221.95;;;16.48;12.40
64115;BME280;62188;35.640;139.748;2023-01-29T03:12:21;101217.25;;;16.85;12.64
64115;BME280;62188;35.640;139.748;2023-01-29T03:14:43;101213.78;;;17.53;13.15
64115;BME280;62188;35.640;139.748;2023-01-29T03:17:08;101206.95;;;17.42;12.43
64115;BME280;62188;35.640;139.748;2023-01-29T03:19:37;101208.65;;;17.49;12.28
64115;BME280;62188;35.640;139.748;2023-01-29T03:22:01;101209.73;;;17.70;11.83
64115;BME280;62188;35.640;139.748;2023-01-29T03:24:31;101200.68;;;17.70;11.76
64115;BME280;62188;35.640;139.748;2023-01-29T03:26:52;101194.65;;;17.63;11.93
64115;BME280;62188;35.640;139.748;2023-01-29T03:29:16;101196.85;;;17.28;12.44
64115;BME280;62188;35.640;139.748;2023-01-29T03:31:42;101197.95;;;17.55;11.67
64115;BME280;62188;35.640;139.748;2023-01-29T03:34:11;101194.43;;;17.69;11.81
64115;BME280;62188;35.640;139.748;2023-01-29T03:36:37;101190.21;;;17.92;11.81
64115;BME280;62188;35.640;139.748;2023-01-29T03:38:59;101183.63;;;17.75;11.61
64115;BME280;62188;35.640;139.748;2023-01-29T03:41:30;101185.48;;;17.66;11.71
64115;BME280;62188;35.640;139.748;2023-01-29T03:43:55;101183.33;;;18.16;11.79
64115;BME280;62188;35.640;139.748;2023-01-29T03:46:21;101176.02;;;18.21;11.57
64115;BME280;62188;35.640;139.748;2023-01-29T03:48:48;101174.79;;;18.11;11.65
64115;BME280;62188;35.640;139.748;2023-01-29T03:51:14;101167.02;;;17.94;11.96
64115;BME280;62188;35.640;139.748;2023-01-29T03:53:40;101166.43;;;18.43;11.98
64115;BME280;62188;35.640;139.748;2023-01-29T03:56:01;101164.41;;;18.42;12.05
64115;BME280;62188;35.640;139.748;2023-01-29T03:58:30;101161.14;;;17.36;12.53
64115;BME280;62188;35.640;139.748;2023-01-29T04:00:55;101153.13;;;17.04;12.88
64115;BME280;62188;35.640;139.748;2023-01-29T04:03:18;101145.82;;;17.12;13.26
64115;BME280;62188;35.640;139.748;2023-01-29T04:05:46;101143.79;;;17.33;13.57
64115;BME280;62188;35.640;139.748;2023-01-29T04:08:10;101134.78;;;16.79;13.56
64115;BME280;62188;35.640;139.748;2023-01-29T04:10:33;101133.37;;;17.46;13.53
64115;BME280;62188;35.640;139.748;2023-01-29T04:13:00;101133.23;;;17.18;13.31
64115;BME280;62188;35.640;139.748;2023-01-29T04:15:24;101130.70;;;16.88;13.55
64115;BME280;62188;35.640;139.748;2023-01-29T04:17:51;101132.15;;;16.35;14.08
64115;BME280;62188;35.640;139.748;2023-01-29T04:20:14;101128.39;;;15.78;14.62
64115;BME280;62188;35.640;139.748;2023-01-29T04:22:43;101125.26;;;14.83;14.91
64115;BME280;62188;35.640;139.748;2023-01-29T04:25:09;101124.18;;;14.49;15.50
64115;BME280;62188;35.640;139.748;2023-01-29T04:27:38;101122.48;;;14.67;15.69
64115;BME280;62188;35.640;139.748;2023-01-29T04:30:06;101116.44;;;14.67;16.00
64115;BME280;62188;35.640;139.748;2023-01-29T04:32:27;101115.74;;;15.27;15.87
64115;BME280;62188;35.640;139.748;2023-01-29T04:34:59;101117.83;;;15.36;15.80
64115;BME280;62188;35.640;139.748;2023-01-29T04:37:19;101113.54;;;15.39;15.60
64115;BME280;62188;35.640;139.748;2023-01-29T04:39:47;101110.46;;;15.42;15.62
64115;BME280;62188;35.640;139.748;2023-01-29T04:42:09;101113.50;;;16.01;15.70
64115;BME280;62188;35.640;139.748;2023-01-29T04:44:36;101113.00;;;15.57;15.93
64115;BME280;62188;35.640;139.748;2023-01-29T04:47:04;101112.55;;;16.07;16.09
64115;BME280;62188;35.640;139.748;2023-01-29T04:49:31;101117.04;;;16.13;15.83
64115;BME280;62188;35.640;139.748;2023-01-29T04:51:54;101113.87;;;16.12;15.62
64115;BME280;62188;35.640;139.748;2023-01-29T04:54:19;101108.94;;;16.16;15.50
64115;BME280;62188;35.640;139.748;2023-01-29T04:56:46;101109.21;;;15.27;16.12
64115;BME280;62188;35.640;139.748;2023-01-29T04:59:08;101114.71;;;14.83;16.22
64115;BME280;62188;35.640;139.748;2023-01-29T05:01:31;101112.63;;;14.64;16.33
64115;BME280;62188;35.640;139.748;2023-01-29T05:03:59;101113.50;;;14.39;16.49
64115;BME280;62188;35.640;139.748;2023-01-29T05:06:23;101111.72;;;14.14;16.77
64115;BME280;62188;35.640;139.748;2023-01-29T05:08:50;101110.04;;;13.82;17.04
64115;BME280;62188;35.640;139.748;2023-01-29T05:11:14;101108.99;;;14.14;16.85
64115;BME280;62188;35.640;139.748;2023-01-29T05:13:41;101113.10;;;14.01;17.14
64115;BME280;62188;35.640;139.748;2023-01-29T05:16:08;101111.13;;;13.40;17.20
64115;BME280;62188;35.640;139.748;2023-01-29T05:18:32;101115.02;;;13.05;17.49
64115;BME280;62188;35.640;139.748;2023-01-29T05:20:58;101116.84;;;12.82;17.51
64115;BME280;62188;35.640;139.748;2023-01-29T05:23:23;101111.77;;;12.63;17.97
64115;BME280;62188;35.640;139.748;2023-01-29T05:25:49;101115.13;;;12.27;17.79
64115;BME280;62188;35.640;139.748;2023-01-29T05:28:14;101111.83;;;11.96;18.21
64115;BME280;62188;35.640;139.748;2023-01-29T05:30:40;101114.46;;;11.69;18.34
64115;BME280;62188;35.640;139.748;2023-01-29T05:33:11;101117.15;;;11.68;18.29
64115;BME280;62188;35.640;139.748;2023-01-29T05:35:31;101116.26;;;12.15;18.80
64115;BME280;62188;35.640;139.748;2023-01-29T05:37:57;101116.76;;;11.98;18.37
64115;BME280;62188;35.640;139.748;2023-01-29T05:40:23;101118.08;;;11.73;18.22
64115;BME280;62188;35.640;139.748;2023-01-29T05:42:49;101119.28;;;11.84;18.68
64115;BME280;62188;35.640;139.748;2023-01-29T05:45:14;101121.47;;;11.67;18.89
64115;BME280;62188;35.640;139.748;2023-01-29T05:47:40;101122.32;;;11.37;18.87
64115;BME280;62188;35.640;139.748;2023-01-29T05:50:06;101119.39;;;11.17;19.27
64115;BME280;62188;35.640;139.748;2023-01-29T05:52:31;101117.51;;;11.32;19.38
64115;BME280;62188;35.640;139.748;2023-01-29T05:54:57;101116.56;;;11.23;19.55
64115;BME280;62188;35.640;139.748;2023-01-29T05:57:23;101116.91;;;11.34;19.72
64115;BME280;62188;35.640;139.748;2023-01-29T05:59:48;101114.63;;;11.37;19.88
64115;BME280;62188;35.640;139.748;2023-01-29T06:02:14;101116.94;;;11.44;19.75
64115;BME280;62188;35.640;139.748;2023-01-29T06:04:40;101115.26;;;11.29;19.90
64115;BME280;62188;35.640;139.748;2023-01-29T06:07:06;101117.73;;;11.46;20.11
64115;BME280;62188;35.640;139.748;2023-01-29T06:09:31;101114.38;;;11.25;20.26
64115;BME280;62188;35.640;139.748;2023-01-29T06:11:57;101113.72;;;11.24;20.22
64115;BME280;62188;35.640;139.748;2023-01-29T06:14:23;101116.05;;;11.21;20.32
64115;BME280;62188;35.640;139.748;2023-01-29T06:16:49;101115.19;;;11.00;20.55
64115;BME280;62188;35.640;139.748;2023-01-29T06:19:15;101117.18;;;11.03;20.46
64115;BME280;62188;35.640;139.748;2023-01-29T06:21:40;101118.16;;;11.40;20.41
64115;BME280;62188;35.640;139.748;2023-01-29T06:24:07;101121.90;;;11.30;20.45
64115;BME280;62188;35.640;139.748;2023-01-29T06:26:32;101127.38;;;11.32;20.67
64115;BME280;62188;35.640;139.748;2023-01-29T06:28:58;101121.65;;;11.31;20.77
64115;BME280;62188;35.640;139.748;2023-01-29T06:31:23;101123.94;;;11.18;20.69
64115;BME280;62188;35.640;139.748;2023-01-29T06:33:49;101128.48;;;11.53;20.57
64115;BME280;62188;35.640;139.748;2023-01-29T06:36:15;101131.09;;;11.31;20.45
64115;BME280;62188;35.640;139.748;2023-01-29T06:38:41;101129.54;;;11.60;20.59
64115;BME280;62188;35.640;139.748;2023-01-29T06:41:12;101128.02;;;11.71;20.50
64115;BME280;62188;35.640;139.748;2023-01-29T06:43:32;101127.10;;;11.73;20.57
64115;BME280;62188;35.640;139.748;2023-01-29T06:45:58;101128.66;;;11.50;20.60
64115;BME280;62188;35.640;139.748;2023-01-29T06:48:24;101127.75;;;11.51;20.76
64115;BME280;62188;35.640;139.748;2023-01-29T06:50:50;101127.37;;;11.46;20.55
64115;BME280;62188;35.640;139.748;2023-01-29T06:53:16;101131.39;;;10.86;20.67
64115;BME280;62188;35.640;139.748;2023-01-29T06:55:41;101133.55;;;11.67;20.47
64115;BME280;62188;35.640;139.748;2023-01-29T06:58:07;101136.37;;;11.43;20.64
64115;BME280;62188;35.640;139.748;2023-01-29T07:00:32;101134.49;;;11.25;20.80
64115;BME280;62188;35.640;139.748;2023-01-29T07:02:57;101135.74;;;11.09;20.93
64115;BME280;62188;35.640;139.748;2023-01-29T07:05:23;101139.79;;;11.20;20.39
64115;BME280;62188;35.640;139.748;2023-01-29T07:07:49;101142.11;;;11.01;20.40
64115;BME280;62188;35.640;139.748;2023-01-29T07:10:15;101144.16;;;10.88;20.41
64115;BME280;62188;35.640;139.748;2023-01-29T07:12:40;101142.41;;;10.88;20.51
64115;BME280;62188;35.640;139.748;2023-01-29T07:15:07;101143.62;;;10.94;20.41
64115;BME280;62188;35.640;139.748;2023-01-29T07:17:32;101149.41;;;10.89;20.23
64115;BME280;62188;35.640;139.748;2023-01-29T07:19:58;101151.90;;;11.25;20.49
64115;BME280;62188;35.640;139.748;2023-01-29T07:22:23;101152.69;;;11.00;20.09
64115;BME280;62188;35.640;139.748;2023-01-29T07:24:48;101151.61;;;10.98;20.04
64115;BME280;62188;35.640;139.748;2023-01-29T07:27:14;101153.86;;;10.94;19.97
64115;BME280;62188;35.640;139.748;2023-01-29T07:29:40;101158.20;;;10.80;20.02
64115;BME280;62188;35.640;139.748;2023-01-29T07:32:06;101161.56;;;10.50;19.94
64115;BME280;62188;35.640;139.748;2023-01-29T07:34:32;101159.99;;;10.58;20.20
64115;BME280;62188;35.640;139.748;2023-01-29T07:36:57;101162.83;;;10.86;20.13
64115;BME280;62188;35.640;139.748;2023-01-29T07:39:23;101164.39;;;10.58;20.11
64115;BME280;62188;35.640;139.748;2023-01-29T07:41:48;101164.58;;;10.46;20.12
64115;BME280;62188;35.640;139.748;2023-01-29T07:44:14;101165.38;;;10.51;20.04
64115;BME280;62188;35.640;139.748;2023-01-29T07:46:40;101159.18;;;10.67;19.98
64115;BME280;62188;35.640;139.748;2023-01-29T07:49:06;101158.83;;;10.50;20.12
64115;BME280;62188;35.640;139.748;2023-01-29T07:51:32;101154.91;;;10.43;20.33
64115;BME280;62188;35.640;139.748;2023-01-29T07:53:57;101157.12;;;10.82;20.98
64115;BME280;62188;35.640;139.748;2023-01-29T07:56:23;101155.91;;;10.82;20.65
64115;BME280;62188;35.640;139.748;2023-01-29T07:58:49;101160.13;;;10.65;20.55
64115;BME280;62188;35.640;139.748;2023-01-29T08:01:14;101163.11;;;11.23;20.97
64115;BME280;62188;35.640;139.748;2023-01-29T08:03:40;101165.26;;;10.91;20.66
64115;BME280;62188;35.640;139.748;2023-01-29T08:06:06;101168.03;;;10.89;20.79
64115;BME280;62188;35.640;139.748;2023-01-29T08:08:31;101167.56;;;10.88;21.20
64115;BME280;62188;35.640;139.748;2023-01-29T08:10:59;101162.20;;;10.94;21.43
64115;BME280;62188;35.640;139.748;2023-01-29T08:13:22;101162.43;;;10.89;21.66
64115;BME280;62188;35.640;139.748;2023-01-29T08:15:48;101162.78;;;10.95;21.50
64115;BME280;62188;35.640;139.748;2023-01-29T08:18:14;101168.42;;;11.00;21.07
64115;BME280;62188;35.640;139.748;2023-01-29T08:20:39;101170.47;;;11.06;20.88
64115;BME280;62188;35.640;139.748;2023-01-29T08:23:12;101171.97;;;11.19;21.02
64115;BME280;62188;35.640;139.748;2023-01-29T08:25:30;101174.95;;;11.27;21.04
64115;BME280;62188;35.640;139.748;2023-01-29T08:27:57;101176.20;;;11.04;20.94
64115;BME280;62188;35.640;139.748;2023-01-29T08:30:21;101182.03;;;11.13;20.69
64115;BME280;62188;35.640;139.748;2023-01-29T08:32:47;101185.45;;;11.03;20.63
64115;BME280;62188;35.640;139.748;2023-01-29T08:35:12;101185.29;;;11.00;20.86
64115;BME280;62188;35.640;139.748;2023-01-29T08:37:38;101186.36;;;11.04;20.72
64115;BME280;62188;35.640;139.748;2023-01-29T08:40:05;101188.54;;;10.97;20.96
64115;BME280;62188;35.640;139.748;2023-01-29T08:42:30;101190.76;;;10.96;20.88
64115;BME280;62188;35.640;139.748;2023-01-29T08:44:55;101194.20;;;10.85;20.71
64115;BME280;62188;35.640;139.748;2023-01-29T08:47:21;101195.72;;;10.90;20.79
64115;BME280;62188;35.640;139.748;2023-01-29T08:49:47;101195.58;;;10.90;20.71
64115;BME280;62188;35.640;139.748;2023-01-29T08:52:12;101194.94;;;10.90;21.00
64115;BME280;62188;35.640;139.748;2023-01-29T08:54:38;101196.21;;;10.90;20.76
64115;BME280;62188;35.640;139.748;2023-01-29T08:57:04;101196.13;;;11.16;21.19
64115;BME280;62188;35.640;139.748;2023-01-29T08:59:30;101197.66;;;11.00;21.10
64115;BME280;62188;35.640;139.748;2023-01-29T09:01:56;101194.60;;;11.00;21.20
64115;BME280;62188;35.640;139.748;2023-01-29T09:04:23;101195.41;;;11.03;21.40
64115;BME280;62188;35.640;139.748;2023-01-29T09:06:48;101199.60;;;10.99;21.47
64115;BME280;62188;35.640;139.748;2023-01-29T09:09:16;101201.33;;;11.02;21.59
64115;BME280;62188;35.640;139.748;2023-01-29T09:11:38;101212.10;;;11.08;21.55
64115;BME280;62188;35.640;139.748;2023-01-29T09:14:09;101213.45;;;11.08;21.50
64115;BME280;62188;35.640;139.748;2023-01-29T09:16:29;101215.96;;;11.09;21.46
64115;BME280;62188;35.640;139.748;2023-01-29T09:18:57;101220.05;;;11.02;21.46
64115;BME280;62188;35.640;139.748;2023-01-29T09:21:20;101222.60;;;10.91;21.59
64115;BME280;62188;35.640;139.748;2023-01-29T09:23:45;101215.94;;;10.98;21.75
64115;BME280;62188;35.640;139.748;2023-01-29T09:26:14;101218.22;;;11.01;21.86
64115;BME280;62188;35.640;139.748;2023-01-29T09:28:36;101214.72;;;10.79;21.89
64115;BME280;62188;35.640;139.748;2023-01-29T09:31:01;101214.22;;;11.05;21.93
64115;BME280;62188;35.640;139.748;2023-01-29T09:33:29;101214.31;;;10.97;22.42
64115;BME280;62188;35.640;139.748;2023-01-29T09:35:53;101217.42;;;11.10;22.54
64115;BME280;62188;35.640;139.748;2023-01-29T09:40:51;101221.36;;;10.89;22.74
64115;BME280;62188;35.640;139.748;2023-01-29T09:43:15;101221.96;;;10.55;22.97
64115;BME280;62188;35.640;139.748;2023-01-29T09:45:36;101222.42;;;10.82;22.91
64115;BME280;62188;35.640;139.748;2023-01-29T09:48:02;101217.27;;;10.77;23.19
64115;BME280;62188;35.640;139.748;2023-01-29T09:50:36;101221.11;;;10.80;23.34
64115;BME280;62188;35.640;139.748;2023-01-29T09:52:55;101220.26;;;10.79;23.33
64115;BME280;62188;35.640;139.748;2023-01-29T09:55:24;101220.75;;;10.74;23.60
64115;BME280;62188;35.640;139.748;2023-01-29T09:57:47;101222.93;;;10.64;23.67
64115;BME280;62188;35.640;139.748;2023-01-29T10:00:17;101222.94;;;10.53;23.88
64115;BME280;62188;35.640;139.748;2023-01-29T10:12:27;101223.20;;;10.57;24.07
64115;BME280;62188;35.640;139.748;2023-01-29T10:14:52;101221.55;;;10.54;24.31
64115;BME280;62188;35.640;139.748;2023-01-29T10:17:20;101221.19;;;10.57;24.55
64115;BME280;62188;35.640;139.748;2023-01-29T10:22:10;101225.03;;;10.57;24.46
64115;BME280;62188;35.640;139.748;2023-01-29T10:24:32;101223.52;;;10.59;24.52
64115;BME280;62188;35.640;139.748;2023-01-29T10:26:51;101222.80;;;10.60;24.47
64115;BME280;62188;35.640;139.748;2023-01-29T10:29:19;101224.56;;;10.56;24.51
64115;BME280;62188;35.640;139.748;2023-01-29T10:31:42;101224.82;;;10.47;24.80
64115;BME280;62188;35.640;139.748;2023-01-29T10:34:12;101223.44;;;10.67;24.88
64115;BME280;62188;35.640;139.748;2023-01-29T10:36:35;101223.06;;;10.46;24.89
64115;BME280;62188;35.640;139.748;2023-01-29T10:38:58;101219.27;;;10.49;24.83
64115;BME280;62188;35.640;139.748;2023-01-29T10:48:55;101216.71;;;10.58;24.84
64115;BME280;62188;35.640;139.748;2023-01-29T10:51:14;101212.75;;;10.61;25.02
64115;BME280;62188;35.640;139.748;2023-01-29T10:53:44;101215.17;;;10.59;24.99
64115;BME280;62188;35.640;139.748;2023-01-29T10:56:09;101217.59;;;11.15;25.06
64115;BME280;62188;35.640;139.748;2023-01-29T11:00:47;101216.12;;;10.63;25.35
64115;BME280;62188;35.640;139.748;2023-01-29T11:03:17;101215.20;;;10.68;25.34
64115;BME280;62188;35.640;139.748;2023-01-29T11:05:44;101214.34;;;10.67;25.30
64115;BME280;62188;35.640;139.748;2023-01-29T11:08:11;101211.79;;;10.67;25.58
64115;BME280;62188;35.640;139.748;2023-01-29T11:10:38;101210.74;;;10.66;25.49
64115;BME280;62188;35.640;139.748;2023-01-29T11:13:01;101212.20;;;10.83;25.52
64115;BME280;62188;35.640;139.748;2023-01-29T11:15:31;101214.81;;;10.71;25.75
64115;BME280;62188;35.640;139.748;2023-01-29T11:18:03;101215.40;;;10.34;25.80
64115;BME280;62188;35.640;139.748;2023-01-29T11:25:15;101209.70;;;10.45;25.86
64115;BME280;62188;35.640;139.748;2023-01-29T11:27:33;101210.01;;;10.69;25.79
64115;BME280;62188;35.640;139.748;2023-01-29T11:29:55;101206.90;;;10.50;25.69
64115;BME280;62188;35.640;139.748;2023-01-29T11:32:25;101202.59;;;10.42;25.75
64115;BME280;62188;35.640;139.748;2023-01-29T11:34:59;101200.16;;;10.58;25.86
64115;BME280;62188;35.640;139.748;2023-01-29T11:37:19;101204.94;;;10.43;26.06
64115;BME280;62188;35.640;139.748;2023-01-29T11:39:42;101202.43;;;10.54;25.98
64115;BME280;62188;35.640;139.748;2023-01-29T11:42:04;101201.47;;;10.69;26.13
64115;BME280;62188;35.640;139.748;2023-01-29T11:44:33;101200.69;;;10.22;26.30
64115;BME280;62188;35.640;139.748;2023-01-29T11:46:56;101198.50;;;10.72;26.48
64115;BME280;62188;35.640;139.748;2023-01-29T11:49:30;101195.14;;;10.45;26.75
64115;BME280;62188;35.640;139.748;2023-01-29T11:51:52;101192.03;;;10.51;26.76
64115;BME280;62188;35.640;139.748;2023-01-29T11:54:17;101194.78;;;10.29;26.78
64115;BME280;62188;35.640;139.748;2023-01-29T11:56:43;101199.65;;;10.33;26.76
64115;BME280;62188;35.640;139.748;2023-01-29T12:01:33;101195.67;;;10.74;27.06
64115;BME280;62188;35.640;139.748;2023-01-29T12:03:58;101189.33;;;10.09;27.08
64115;BME280;62188;35.640;139.748;2023-01-29T12:06:26;101185.17;;;10.14;27.04
64115;BME280;62188;35.640;139.748;2023-01-29T12:08:53;101182.37;;;10.70;27.06
64115;BME280;62188;35.640;139.748;2023-01-29T12:11:17;101188.79;;;11.01;27.16
64115;BME280;62188;35.640;139.748;2023-01-29T12:13:39;101186.07;;;10.26;27.28
64115;BME280;62188;35.640;139.748;2023-01-29T12:16:16;101184.17;;;10.54;27.22
64115;BME280;62188;35.640;139.748;2023-01-29T12:18:35;101184.70;;;10.59;27.52
64115;BME280;62188;35.640;139.748;2023-01-29T12:21:13;101183.10;;;10.66;27.69
64115;BME280;62188;35.640;139.748;2023-01-29T12:23:29;101180.48;;;10.40;27.94
64115;BME280;62188;35.640;139.748;2023-01-29T12:25:53;101173.70;;;10.61;28.32
64115;BME280;62188;35.640;139.748;2023-01-29T12:28:28;101168.79;;;10.41;28.47
64115;BME280;62188;35.640;139.748;2023-01-29T12:30:46;101166.93;;;10.46;28.69
64115;BME280;62188;35.640;139.748;2023-01-29T12:33:11;101160.66;;;10.59;28.87
64115;BME280;62188;35.640;139.748;2023-01-29T12:35:34;101156.23;;;10.92;28.75
64115;BME280;62188;35.640;139.748;2023-01-29T12:37:59;101156.22;;;10.59;28.79
64115;BME280;62188;35.640;139.748;2023-01-29T12:40:24;101151.33;;;10.64;28.80
64115;BME280;62188;35.640;139.748;2023-01-29T12:42:52;101151.07;;;10.99;29.15
64115;BME280;62188;35.640;139.748;2023-01-29T12:45:18;101148.81;;;10.80;28.82
64115;BME280;62188;35.640;139.748;2023-01-29T12:47:43;101146.15;;;10.79;28.98
64115;BME280;62188;35.640;139.748;2023-01-29T12:50:13;101138.16;;;10.87;28.90
64115;BME280;62188;35.640;139.748;2023-01-29T12:52:36;101141.11;;;10.90;28.82
64115;BME280;62188;35.640;139.748;2023-01-29T12:54:59;101139.94;;;10.67;28.80
64115;BME280;62188;35.640;139.748;2023-01-29T12:57:33;101136.50;;;10.94;28.76